createdAt,value
2022-08-16T00:02:33.692Z,99642.88
2022-08-16T00:05:02.494Z,99635.00
2022-08-16T00:07:30.896Z,99638.44
2022-08-16T00:10:00.540Z,99636.72
2022-08-16T00:12:30.310Z,99641.53
2022-08-16T00:15:01.191Z,99631.94
2022-08-16T00:17:29.435Z,99627.03
2022-08-16T00:20:20.946Z,99630.72
2022-08-16T00:22:49.176Z,99627.16
2022-08-16T00:26:33.582Z,99630.59
2022-08-16T00:28:13.249Z,99643.47
2022-08-16T00:30:41.239Z,99645.03
2022-08-16T00:33:10.167Z,99640.72
2022-08-16T00:35:39.336Z,99640.91
2022-08-16T00:38:40.619Z,99636.63
2022-08-16T00:40:57.548Z,99644.63
2022-08-16T00:43:42.503Z,99641.97
2022-08-16T00:46:34.156Z,99641.03
2022-08-16T00:49:07.087Z,99634.16
2022-08-16T00:51:46.768Z,99638.53
2022-08-16T00:54:25.937Z,99631.09
2022-08-16T00:57:02.418Z,99636.31
2022-08-16T00:59:37.857Z,99630.16
2022-08-16T01:02:30.509Z,99634.78
2022-08-16T01:05:10.325Z,99634.78
2022-08-16T01:07:51.323Z,99632.13
2022-08-16T01:10:31.967Z,99633.19
2022-08-16T01:13:12.027Z,99629.75
2022-08-16T01:15:47.621Z,99636.72
2022-08-16T01:18:40.678Z,99638.72
2022-08-16T01:21:25.294Z,99631.91
2022-08-16T01:24:52.370Z,99630.13
2022-08-16T01:27:15.110Z,99639.28
2022-08-16T01:29:58.136Z,99636.38
2022-08-16T01:32:33.442Z,99629.44
2022-08-16T01:35:16.979Z,99633.88
2022-08-16T01:37:54.003Z,99637.31
2022-08-16T01:40:28.822Z,99634.72
2022-08-16T01:42:57.786Z,99638.97
2022-08-16T01:45:39.678Z,99638.91
2022-08-16T01:48:19.520Z,99633.75
2022-08-16T01:51:09.204Z,99634.00
2022-08-16T01:53:42.012Z,99636.63
2022-08-16T01:56:29.594Z,99642.91
2022-08-16T01:59:05.091Z,99636.75
2022-08-16T02:01:34.701Z,99636.81
2022-08-16T02:04:11.122Z,99637.69
2022-08-16T02:06:46.765Z,99644.94
2022-08-16T02:09:25.489Z,99645.03
2022-08-16T02:12:50.187Z,99644.94
2022-08-16T02:14:56.275Z,99642.22
2022-08-16T02:17:25.578Z,99645.69
2022-08-16T02:19:59.454Z,99644.06
2022-08-16T02:22:34.908Z,99651.34
2022-08-16T02:25:14.718Z,99641.13
2022-08-16T02:27:50.837Z,99644.81
2022-08-16T02:30:35.824Z,99645.63
2022-08-16T02:33:12.873Z,99647.00
2022-08-16T02:35:54.499Z,99634.81
2022-08-16T02:38:31.470Z,99634.94
2022-08-16T02:41:02.397Z,99643.78
2022-08-16T02:43:38.042Z,99639.19
2022-08-16T02:46:09.601Z,99636.44
2022-08-16T02:48:39.580Z,99643.72
2022-08-16T02:51:18.509Z,99642.47
2022-08-16T02:53:52.303Z,99654.28
2022-08-16T02:56:22.101Z,99653.69
2022-08-16T02:58:53.432Z,99658.31
2022-08-16T03:01:33.775Z,99657.81
2022-08-16T03:04:49.915Z,99658.13
2022-08-16T03:07:14.413Z,99657.50
2022-08-16T03:09:46.092Z,99648.03
2022-08-16T03:12:19.305Z,99646.06
2022-08-16T03:14:49.747Z,99651.25
2022-08-16T03:17:23.381Z,99645.88
2022-08-16T03:20:04.142Z,99645.75
2022-08-16T03:22:37.410Z,99656.31
2022-08-16T03:25:16.035Z,99653.09
2022-08-16T03:27:53.648Z,99658.47
2022-08-16T03:30:29.177Z,99657.28
2022-08-16T03:33:05.462Z,99655.50
2022-08-16T03:35:42.047Z,99648.34
2022-08-16T03:38:33.110Z,99647.44
2022-08-16T03:41:25.374Z,99645.53
2022-08-16T03:43:59.750Z,99642.84
2022-08-16T03:46:44.961Z,99650.06
2022-08-16T03:49:22.615Z,99645.53
2022-08-16T03:51:56.552Z,99640.38
2022-08-16T03:54:30.326Z,99645.66
2022-08-16T03:56:59.041Z,99646.53
2022-08-16T03:59:31.379Z,99652.59
2022-08-16T04:02:12.159Z,99641.97
2022-08-16T04:04:54.867Z,99649.00
2022-08-16T04:07:25.117Z,99654.28
2022-08-16T04:10:36.088Z,99656.94
2022-08-16T04:12:54.626Z,99656.09
2022-08-16T04:15:30.174Z,99650.94
2022-08-16T04:18:13.133Z,99649.53
2022-08-16T04:20:43.148Z,99658.59
2022-08-16T04:23:11.161Z,99656.84
2022-08-16T04:25:42.178Z,99655.16
2022-08-16T04:28:54.319Z,99655.25
2022-08-16T04:31:04.115Z,99662.53
2022-08-16T04:33:51.282Z,99660.81
2022-08-16T04:36:22.090Z,99662.66
2022-08-16T04:38:50.251Z,99665.44
2022-08-16T04:41:32.388Z,99661.94
2022-08-16T04:44:02.858Z,99665.75
2022-08-16T04:47:00.834Z,99666.59
2022-08-16T04:49:43.751Z,99678.16
2022-08-16T04:52:33.174Z,99684.44
2022-08-16T04:55:07.395Z,99686.06
2022-08-16T04:57:38.339Z,99683.38
2022-08-16T05:00:32.512Z,99680.78
2022-08-16T05:03:07.524Z,99673.81
2022-08-16T05:05:58.974Z,99682.47
2022-08-16T05:08:30.991Z,99678.97
2022-08-16T05:11:10.339Z,99674.56
2022-08-16T05:13:42.814Z,99678.94
2022-08-16T05:16:21.670Z,99682.22
2022-08-16T05:18:58.350Z,99689.88
2022-08-16T05:21:37.994Z,99693.06
2022-08-16T05:24:08.986Z,99694.44
2022-08-16T05:26:40.905Z,99689.59
2022-08-16T05:29:15.203Z,99691.09
2022-08-16T05:31:54.199Z,99684.97
2022-08-16T05:34:23.115Z,99695.31
2022-08-16T05:37:00.756Z,99698.09
2022-08-16T05:39:40.806Z,99699.53
2022-08-16T05:42:09.873Z,99697.81
2022-08-16T05:44:40.028Z,99701.13
2022-08-16T05:47:15.320Z,99706.53
2022-08-16T05:49:45.581Z,99708.53
2022-08-16T05:52:23.336Z,99717.38
2022-08-16T05:55:01.220Z,99724.28
2022-08-16T05:57:34.419Z,99724.22
2022-08-16T06:00:11.932Z,99724.00
2022-08-16T06:02:46.345Z,99728.56
2022-08-16T06:05:52.325Z,99736.56
2022-08-16T06:08:31.708Z,99744.84
2022-08-16T06:11:11.111Z,99742.25
2022-08-16T06:13:47.323Z,99736.97
2022-08-16T06:16:20.355Z,99740.41
2022-08-16T06:18:52.669Z,99738.00
2022-08-16T06:21:23.679Z,99740.41
2022-08-16T06:24:01.464Z,99743.09
2022-08-16T06:26:57.952Z,99739.47
2022-08-16T06:29:30.790Z,99747.06
2022-08-16T06:32:00.565Z,99741.19
2022-08-16T06:34:31.691Z,99743.91
2022-08-16T06:37:18.779Z,99748.41
2022-08-16T06:39:50.009Z,99737.06
2022-08-16T06:42:39.536Z,99738.59
2022-08-16T06:45:43.354Z,99742.28
2022-08-16T06:48:21.201Z,99744.69
2022-08-16T06:51:03.451Z,99742.97
2022-08-16T06:53:35.529Z,99734.34
2022-08-16T06:56:14.728Z,99742.50
2022-08-16T06:59:20.437Z,99747.03
2022-08-16T07:01:58.051Z,99745.97
2022-08-16T07:04:32.815Z,99746.44
2022-08-16T07:07:14.537Z,99751.53
2022-08-16T07:09:44.143Z,99753.06
2022-08-16T07:12:15.360Z,99747.53
2022-08-16T07:14:47.738Z,99748.41
2022-08-16T07:17:21.579Z,99761.00
2022-08-16T07:20:29.500Z,99759.28
2022-08-16T07:22:52.552Z,99763.22
2022-08-16T07:25:25.840Z,99759.56
2022-08-16T07:27:55.049Z,99758.66
2022-08-16T07:30:45.248Z,99754.81
2022-08-16T07:33:53.601Z,99765.91
2022-08-16T07:36:21.889Z,99755.13
2022-08-16T07:38:52.141Z,99765.09
2022-08-16T07:41:20.777Z,99753.25
2022-08-16T07:43:55.496Z,99760.38
2022-08-16T07:46:38.667Z,99758.59
2022-08-16T07:49:18.157Z,99753.13
2022-08-16T07:51:47.793Z,99763.69
2022-08-16T07:54:21.116Z,99777.59
2022-08-16T07:56:54.159Z,99779.75
2022-08-16T07:59:25.957Z,99773.56
2022-08-16T08:02:12.113Z,99781.31
2022-08-16T08:04:41.208Z,99779.03
2022-08-16T08:07:09.893Z,99773.06
2022-08-16T08:09:43.432Z,99770.38
2022-08-16T08:12:31.375Z,99777.53
2022-08-16T08:15:05.857Z,99774.91
2022-08-16T08:17:42.116Z,99769.69
2022-08-16T08:20:33.721Z,99776.34
2022-08-16T08:23:02.926Z,99766.34
2022-08-16T08:25:54.972Z,99775.34
2022-08-16T08:28:26.678Z,99776.91
2022-08-16T08:31:03.619Z,99789.81
2022-08-16T08:33:37.745Z,99790.53
2022-08-16T08:36:22.150Z,99793.47
2022-08-16T08:38:53.356Z,99797.09
2022-08-16T08:41:28.721Z,99800.97
2022-08-16T08:43:58.913Z,99800.31
2022-08-16T08:46:35.578Z,99795.69
2022-08-16T08:49:07.842Z,99800.22
2022-08-16T08:51:41.846Z,99798.44
2022-08-16T08:54:18.660Z,99801.97
2022-08-16T08:56:52.315Z,99791.25
2022-08-16T08:59:34.834Z,99800.50
2022-08-16T09:02:13.029Z,99797.50
2022-08-16T09:04:47.825Z,99795.88
2022-08-16T09:07:54.722Z,99787.16
2022-08-16T09:10:34.450Z,99793.31
2022-08-16T09:13:10.980Z,99789.06
2022-08-16T09:15:49.197Z,99788.69
2022-08-16T09:18:26.439Z,99796.13
2022-08-16T09:20:59.048Z,99798.78
2022-08-16T09:23:36.486Z,99793.31
2022-08-16T09:26:44.540Z,99783.59
2022-08-16T09:29:14.835Z,99793.53
2022-08-16T09:31:47.137Z,99803.25
2022-08-16T09:34:23.202Z,99798.28
2022-08-16T09:36:53.968Z,99805.56
2022-08-16T09:39:22.631Z,99806.38
2022-08-16T09:41:53.270Z,99799.06
2022-08-16T09:45:11.504Z,99802.13
2022-08-16T09:47:12.425Z,99806.13
2022-08-16T09:49:41.675Z,99792.91
2022-08-16T09:52:11.172Z,99795.38
2022-08-16T09:54:44.562Z,99792.38
2022-08-16T09:57:13.732Z,99791.88
2022-08-16T09:59:42.391Z,99791.03
2022-08-16T10:02:22.915Z,99793.88
2022-08-16T10:04:58.597Z,99798.72
2022-08-16T10:07:56.013Z,99790.84
2022-08-16T10:10:18.987Z,99793.34
2022-08-16T10:13:16.314Z,99787.72
2022-08-16T10:15:55.201Z,99798.19
2022-08-16T10:19:00.841Z,99793.88
2022-08-16T10:21:17.650Z,99793.34
2022-08-16T10:23:48.892Z,99793.91
2022-08-16T10:27:20.517Z,99789.72
2022-08-16T10:29:06.091Z,99788.28
2022-08-16T10:31:43.428Z,99785.94
2022-08-16T10:34:30.748Z,99785.22
2022-08-16T10:37:03.391Z,99793.00
2022-08-16T10:39:40.929Z,99790.81
2022-08-16T10:42:10.436Z,99792.91
2022-08-16T10:44:42.684Z,99795.59
2022-08-16T10:47:22.372Z,99799.94
2022-08-16T10:49:50.616Z,99795.88
2022-08-16T10:52:20.221Z,99802.56
2022-08-16T10:57:36.885Z,99808.34
2022-08-16T11:00:21.071Z,99811.22
2022-08-16T11:02:58.565Z,99806.41
2022-08-16T11:05:58.998Z,99787.03
2022-08-16T11:08:31.297Z,99806.66
2022-08-16T11:11:18.370Z,99809.78
2022-08-16T11:14:10.908Z,99813.09
2022-08-16T11:19:25.945Z,99797.56
2022-08-16T11:22:23.043Z,99810.00
2022-08-16T11:25:11.471Z,99812.81
2022-08-16T11:27:37.352Z,99819.06
2022-08-16T11:30:12.120Z,99808.88
2022-08-16T11:32:44.163Z,99817.03
2022-08-16T11:35:19.047Z,99814.19
2022-08-16T11:38:46.775Z,99811.56
2022-08-16T11:41:01.819Z,99816.06
2022-08-16T11:43:34.752Z,99808.69
2022-08-16T11:46:27.864Z,99816.50
2022-08-16T11:48:58.322Z,99812.06
2022-08-16T11:51:26.236Z,99825.53
2022-08-16T11:53:54.542Z,99812.09
2022-08-16T11:56:51.607Z,99821.53
2022-08-16T11:59:13.146Z,99814.56
2022-08-16T12:01:44.221Z,99816.75
2022-08-16T12:04:28.341Z,99826.47
2022-08-16T12:06:57.281Z,99822.94
2022-08-16T12:09:29.340Z,99826.91
2022-08-16T12:12:02.652Z,99817.31
2022-08-16T12:14:35.283Z,99820.91
2022-08-16T12:17:08.760Z,99813.41
2022-08-16T12:19:37.150Z,99822.84
2022-08-16T12:22:18.898Z,99818.72
2022-08-16T12:24:51.149Z,99807.25
2022-08-16T12:27:25.375Z,99803.03
2022-08-16T12:29:54.892Z,99814.47
2022-08-16T12:32:39.561Z,99810.53
2022-08-16T12:35:18.374Z,99806.06
2022-08-16T12:37:55.479Z,99809.06
2022-08-16T12:40:32.407Z,99817.16
2022-08-16T12:43:07.877Z,99827.22
2022-08-16T12:45:48.803Z,99818.38
2022-08-16T12:48:39.517Z,99816.53
2022-08-16T12:51:22.232Z,99816.88
2022-08-16T12:53:56.111Z,99823.25
2022-08-16T12:56:33.374Z,99811.38
2022-08-16T12:59:12.601Z,99819.63
2022-08-16T13:01:50.461Z,99824.19
2022-08-16T13:04:20.483Z,99820.66
2022-08-16T13:06:50.207Z,99814.31
2022-08-16T13:09:26.866Z,99813.97
2022-08-16T13:12:03.266Z,99812.69
2022-08-16T13:14:38.557Z,99820.91
2022-08-16T13:17:18.775Z,99822.34
2022-08-16T13:20:09.274Z,99813.03
2022-08-16T13:22:44.246Z,99812.91
2022-08-16T13:25:21.126Z,99807.03
2022-08-16T13:28:01.816Z,99808.50
2022-08-16T13:30:44.900Z,99820.00
2022-08-16T13:33:26.011Z,99817.00
2022-08-16T13:35:59.596Z,99818.69
2022-08-16T13:38:37.066Z,99810.72
2022-08-16T13:41:10.933Z,99809.06
2022-08-16T13:43:40.163Z,99809.78
2022-08-16T13:46:10.905Z,99810.75
2022-08-16T13:48:44.214Z,99816.53
2022-08-16T13:51:18.069Z,99809.88
2022-08-16T13:53:54.608Z,99809.13
2022-08-16T13:56:37.033Z,99812.06
2022-08-16T13:59:14.422Z,99814.50
2022-08-16T14:01:55.284Z,99812.97
2022-08-16T14:04:30.027Z,99813.66
2022-08-16T14:07:01.480Z,99811.97
2022-08-16T14:09:33.830Z,99817.94
2022-08-16T14:12:17.786Z,99812.06
2022-08-16T14:14:46.805Z,99814.03
2022-08-16T14:17:18.741Z,99821.75
2022-08-16T14:19:48.761Z,99822.53
2022-08-16T14:22:30.327Z,99816.53
2022-08-16T14:25:03.308Z,99814.97
2022-08-16T14:27:38.917Z,99816.69
2022-08-16T14:30:15.469Z,99812.66
2022-08-16T14:32:50.969Z,99813.88
2022-08-16T14:35:36.267Z,99818.78
2022-08-16T14:38:11.080Z,99816.63
2022-08-16T14:40:52.684Z,99820.38
2022-08-16T14:43:25.706Z,99821.81
2022-08-16T14:45:58.108Z,99815.59
2022-08-16T14:48:27.517Z,99812.72
2022-08-16T14:50:56.062Z,99820.00
2022-08-16T14:53:26.390Z,99809.41
2022-08-16T14:55:55.067Z,99810.50
2022-08-16T14:58:34.954Z,99801.28
2022-08-16T15:01:05.635Z,99800.88
2022-08-16T15:03:37.557Z,99816.28
2022-08-16T15:06:08.439Z,99811.84
2022-08-16T15:08:40.952Z,99808.44
2022-08-16T15:11:09.525Z,99803.50
2022-08-16T15:13:37.395Z,99806.38
2022-08-16T15:16:07.454Z,99818.97
2022-08-16T15:18:36.831Z,99809.44
2022-08-16T15:21:08.667Z,99819.25
2022-08-16T15:23:40.382Z,99813.31
2022-08-16T15:26:09.419Z,99817.25
2022-08-16T15:28:38.377Z,99820.50
2022-08-16T15:31:10.349Z,99817.81
2022-08-16T15:33:50.122Z,99820.34
2022-08-16T15:36:21.113Z,99814.72
2022-08-16T15:38:56.257Z,99821.59
2022-08-16T15:42:01.534Z,99816.06
2022-08-16T15:44:38.915Z,99829.69
2022-08-16T15:47:25.663Z,99824.59
2022-08-16T15:49:56.324Z,99826.06
2022-08-16T15:52:30.356Z,99834.59
2022-08-16T15:55:12.634Z,99834.91
2022-08-16T15:57:49.939Z,99833.75
2022-08-16T16:00:20.665Z,99829.72
2022-08-16T16:02:49.633Z,99828.69
2022-08-16T16:05:19.777Z,99832.03
2022-08-16T16:07:56.617Z,99831.72
2022-08-16T16:10:37.411Z,99831.38
2022-08-16T16:13:09.512Z,99833.28
2022-08-16T16:15:41.123Z,99840.91
2022-08-16T16:18:11.945Z,99837.88
2022-08-16T16:20:47.401Z,99833.56
2022-08-16T16:23:20.964Z,99832.50
2022-08-16T16:25:53.063Z,99838.53
2022-08-16T16:29:06.195Z,99833.53
2022-08-16T16:31:19.065Z,99843.03
2022-08-16T16:33:56.019Z,99847.47
2022-08-16T16:36:28.742Z,99838.91
2022-08-16T16:38:58.025Z,99825.34
2022-08-16T16:41:28.097Z,99836.94
2022-08-16T16:43:57.500Z,99839.13
2022-08-16T16:46:42.846Z,99831.81
2022-08-16T16:49:14.613Z,99831.06
2022-08-16T16:51:47.120Z,99832.03
2022-08-16T16:54:27.734Z,99835.16
2022-08-16T16:56:58.217Z,99835.78
2022-08-16T16:59:28.079Z,99837.97
2022-08-16T17:02:39.303Z,99840.81
2022-08-16T17:04:47.532Z,99850.38
2022-08-16T17:07:17.656Z,99848.78
2022-08-16T17:09:52.322Z,99846.94
2022-08-16T17:12:25.260Z,99851.25
2022-08-16T17:15:12.124Z,99852.34
2022-08-16T17:18:00.288Z,99860.69
2022-08-16T17:20:29.948Z,99852.19
2022-08-16T17:23:00.084Z,99851.53
2022-08-16T17:25:36.411Z,99860.22
2022-08-16T17:28:57.813Z,99862.22
2022-08-16T17:30:54.177Z,99855.59
2022-08-16T17:33:22.962Z,99857.44
2022-08-16T17:35:55.262Z,99854.66
2022-08-16T17:38:38.987Z,99853.78
2022-08-16T17:41:13.726Z,99863.66
2022-08-16T17:43:44.904Z,99863.34
2022-08-16T17:46:50.831Z,99867.09
2022-08-16T17:49:03.813Z,99870.06
2022-08-16T17:51:34.020Z,99871.59
2022-08-16T17:54:03.439Z,99873.31
2022-08-16T17:56:31.744Z,99879.19
2022-08-16T17:58:59.605Z,99874.16
2022-08-16T18:01:29.122Z,99871.97
2022-08-16T18:04:07.205Z,99876.94
2022-08-16T18:06:39.450Z,99882.69
2022-08-16T18:09:10.420Z,99883.09
2022-08-16T18:11:40.680Z,99881.97
2022-08-16T18:14:11.399Z,99883.28
2022-08-16T18:16:41.215Z,99889.00
2022-08-16T18:19:10.599Z,99886.94
2022-08-16T18:21:57.234Z,99894.00
2022-08-16T18:24:29.439Z,99893.81
2022-08-16T18:27:10.262Z,99895.06
2022-08-16T18:29:47.843Z,99889.25
2022-08-16T18:32:21.987Z,99886.94
2022-08-16T18:34:54.531Z,99894.38
2022-08-16T18:37:23.773Z,99900.47
2022-08-16T18:39:53.190Z,99903.50
2022-08-16T18:42:21.331Z,99905.91
2022-08-16T18:44:49.293Z,99914.03
2022-08-16T18:47:17.228Z,99913.81
2022-08-16T18:49:45.370Z,99918.72
2022-08-16T18:52:25.110Z,99916.34
2022-08-16T18:55:02.098Z,99917.56
2022-08-16T18:57:31.124Z,99919.59
2022-08-16T18:59:58.986Z,99918.56
2022-08-16T19:02:57.163Z,99922.19
2022-08-16T19:05:22.924Z,99930.94
2022-08-16T19:07:51.444Z,99925.97
2022-08-16T19:10:21.446Z,99936.91
2022-08-16T19:12:49.575Z,99937.06
2022-08-16T19:15:23.415Z,99940.66
2022-08-16T19:17:52.540Z,99941.94
2022-08-16T19:20:24.367Z,99945.56
2022-08-16T19:23:05.114Z,99951.03
2022-08-16T19:25:48.792Z,99954.72
2022-08-16T19:28:51.273Z,99950.75
2022-08-16T19:31:19.079Z,99954.16
2022-08-16T19:33:54.864Z,99955.16
2022-08-16T19:36:31.413Z,99952.84
2022-08-16T19:39:04.980Z,99955.03
2022-08-16T19:41:38.415Z,99966.25
2022-08-16T19:44:07.783Z,99971.09
2022-08-16T19:46:37.863Z,99962.81
2022-08-16T19:49:06.841Z,99970.16
2022-08-16T19:51:37.596Z,99975.63
2022-08-16T19:54:05.880Z,99972.91
2022-08-16T19:56:35.201Z,99978.91
2022-08-16T19:59:21.044Z,99978.06
2022-08-16T20:01:51.880Z,99994.41
2022-08-16T20:04:22.584Z,99992.38
2022-08-16T20:06:52.409Z,99985.50
2022-08-16T20:09:21.991Z,99988.94
2022-08-16T20:11:54.988Z,99987.22
2022-08-16T20:14:25.543Z,99985.50
2022-08-16T20:16:57.028Z,99988.31
2022-08-16T20:19:27.297Z,99998.00
2022-08-16T20:21:56.813Z,99997.22
2022-08-16T20:24:35.516Z,100007.38
2022-08-16T20:27:09.502Z,100004.97
2022-08-16T20:29:41.222Z,100000.78
2022-08-16T20:32:14.250Z,100008.00
2022-08-16T20:34:44.905Z,100008.31
2022-08-16T20:37:15.665Z,100011.16
2022-08-16T20:39:44.860Z,100012.19
2022-08-16T20:42:19.056Z,100013.47
2022-08-16T20:44:46.988Z,100016.75
2022-08-16T20:47:15.438Z,100011.50
2022-08-16T20:49:43.384Z,100016.19
2022-08-16T20:52:15.609Z,100015.47
2022-08-16T20:54:44.883Z,100026.25
2022-08-16T20:57:16.350Z,100023.59
2022-08-16T20:59:49.869Z,100018.47
2022-08-16T21:02:25.150Z,100024.03
2022-08-16T21:04:54.486Z,100025.94
2022-08-16T21:07:22.822Z,100033.25
2022-08-16T21:09:50.659Z,100034.38
2022-08-16T21:12:19.947Z,100041.59
2022-08-16T21:14:48.150Z,100036.28
2022-08-16T21:17:16.513Z,100046.91
2022-08-16T21:19:45.050Z,100050.31
2022-08-16T21:22:16.826Z,100051.31
2022-08-16T21:24:46.619Z,100054.34
2022-08-16T21:27:14.949Z,100052.59
2022-08-16T21:29:46.901Z,100051.88
2022-08-16T21:32:19.722Z,100057.19
2022-08-16T21:35:11.337Z,100061.59
2022-08-16T21:37:40.882Z,100061.88
2022-08-16T21:40:12.121Z,100060.13
2022-08-16T21:42:42.540Z,100069.19
2022-08-16T21:45:14.388Z,100064.00
2022-08-16T21:47:43.501Z,100060.69
2022-08-16T21:50:13.643Z,100059.09
2022-08-16T21:52:41.480Z,100056.91
2022-08-16T21:55:11.696Z,100057.03
2022-08-16T21:57:39.666Z,100065.06
2022-08-16T22:00:14.529Z,100059.09
2022-08-16T22:02:42.554Z,100060.47
2022-08-16T22:05:10.824Z,100064.97
2022-08-16T22:07:38.795Z,100067.81
2022-08-16T22:11:05.113Z,100066.09
2022-08-16T22:12:56.730Z,100067.09
2022-08-16T22:15:26.177Z,100067.19
2022-08-16T22:17:57.250Z,100068.97
2022-08-16T22:20:27.633Z,100069.16
2022-08-16T22:23:07.850Z,100065.78
2022-08-16T22:25:37.747Z,100070.41
2022-08-16T22:28:06.183Z,100065.22
2022-08-16T22:30:35.779Z,100057.19
2022-08-16T22:33:10.217Z,100069.78
2022-08-16T22:35:47.346Z,100060.16
2022-08-16T22:38:53.824Z,100058.56
2022-08-16T22:41:05.125Z,100051.00
2022-08-16T22:43:33.276Z,100048.44
2022-08-16T22:46:02.948Z,100042.28
2022-08-16T22:48:32.090Z,100040.63
2022-08-16T22:51:07.509Z,100050.31
2022-08-16T22:53:37.341Z,100041.69
2022-08-16T22:56:06.040Z,100041.94
2022-08-16T22:58:37.081Z,100047.34
2022-08-16T23:01:10.198Z,100042.06
2022-08-16T23:03:39.181Z,100041.25
2022-08-16T23:06:08.923Z,100043.91
2022-08-16T23:08:40.905Z,100053.69
2022-08-16T23:11:14.327Z,100051.13
2022-08-16T23:13:53.266Z,100052.13
2022-08-16T23:16:33.588Z,100051.28
2022-08-16T23:19:04.148Z,100047.06
2022-08-16T23:21:32.779Z,100049.75
2022-08-16T23:24:01.710Z,100047.16
2022-08-16T23:26:43.914Z,100047.06
2022-08-16T23:29:24.272Z,100028.81
2022-08-16T23:31:58.682Z,100029.63
2022-08-16T23:34:28.747Z,100029.03
2022-08-16T23:36:57.693Z,100029.94
2022-08-16T23:39:25.841Z,100019.72
2022-08-16T23:41:53.804Z,100019.03
2022-08-16T23:44:56.518Z,100020.84
2022-08-16T23:47:11.729Z,100020.97
2022-08-16T23:49:56.135Z,100019.38
2022-08-16T23:52:54.739Z,100030.09
2022-08-16T23:55:17.389Z,100029.38
2022-08-16T23:57:46.257Z,100030.41
